createdAt,value
2022-12-18T00:01:35.264Z,80.19
2022-12-18T00:04:05.654Z,80.08
2022-12-18T00:06:34.179Z,79.92
2022-12-18T00:09:02.689Z,79.62
2022-12-18T00:11:32.038Z,79.55
2022-12-18T00:14:00.590Z,79.23
2022-12-18T00:16:29.239Z,79.00
2022-12-18T00:18:58.539Z,78.81
2022-12-18T00:21:26.404Z,78.62
2022-12-18T00:23:53.807Z,78.43
2022-12-18T00:26:25.258Z,78.33
2022-12-18T00:28:53.366Z,78.28
2022-12-18T00:31:24.782Z,78.00
2022-12-18T00:33:54.151Z,77.81
2022-12-18T00:36:29.385Z,77.86
2022-12-18T00:38:59.200Z,77.61
2022-12-18T00:41:46.060Z,77.60
2022-12-18T00:44:16.105Z,77.47
2022-12-18T00:46:45.117Z,77.60
2022-12-18T00:49:12.841Z,77.52
2022-12-18T00:51:40.097Z,77.25
2022-12-18T00:54:07.362Z,76.97
2022-12-18T00:56:39.368Z,76.78
2022-12-18T00:59:13.039Z,76.62
2022-12-18T01:01:40.395Z,76.35
2022-12-18T01:04:07.821Z,76.36
2022-12-18T01:06:36.818Z,76.67
2022-12-18T01:09:04.602Z,76.52
2022-12-18T01:11:32.134Z,76.55
2022-12-18T01:14:00.449Z,76.75
2022-12-18T01:16:27.577Z,76.63
2022-12-18T01:18:56.117Z,76.47
2022-12-18T01:21:25.126Z,76.05
2022-12-18T01:23:55.394Z,75.88
2022-12-18T01:26:23.568Z,75.75
2022-12-18T01:28:50.730Z,75.70
2022-12-18T01:31:24.656Z,75.66
2022-12-18T01:33:53.434Z,75.69
2022-12-18T01:36:23.618Z,75.74
2022-12-18T01:38:51.813Z,75.74
2022-12-18T01:41:48.626Z,75.83
2022-12-18T01:45:00.959Z,75.94
2022-12-18T01:47:54.832Z,75.75
2022-12-18T01:50:25.654Z,75.90
2022-12-18T01:53:04.257Z,75.98
2022-12-18T01:55:39.679Z,75.87
2022-12-18T01:58:06.976Z,75.50
2022-12-18T02:00:34.104Z,75.33
2022-12-18T02:03:01.822Z,75.14
2022-12-18T02:05:56.703Z,74.62
2022-12-18T02:08:43.161Z,74.73
2022-12-18T02:11:21.874Z,74.76
2022-12-18T02:14:10.686Z,74.93
2022-12-18T02:17:12.275Z,74.61
2022-12-18T02:20:23.922Z,74.76
2022-12-18T02:22:58.097Z,74.89
2022-12-18T02:25:52.543Z,74.66
2022-12-18T02:28:23.745Z,74.72
2022-12-18T02:30:54.616Z,74.83
2022-12-18T02:33:23.747Z,74.75
2022-12-18T02:35:53.721Z,75.32
2022-12-18T02:38:21.045Z,74.99
2022-12-18T02:40:51.049Z,71.07
2022-12-18T02:43:18.219Z,67.30
2022-12-18T02:45:58.044Z,63.53
2022-12-18T02:48:36.186Z,64.80
2022-12-18T02:51:46.731Z,66.98
2022-12-18T02:54:25.850Z,67.95
2022-12-18T02:56:57.498Z,68.16
2022-12-18T02:59:58.223Z,67.94
2022-12-18T03:03:06.992Z,67.68
2022-12-18T03:05:57.753Z,66.95
2022-12-18T03:08:30.022Z,66.84
2022-12-18T03:11:10.955Z,66.38
2022-12-18T03:13:51.044Z,65.99
2022-12-18T03:16:28.665Z,65.65
2022-12-18T03:19:21.933Z,65.10
2022-12-18T03:21:58.268Z,64.55
2022-12-18T03:24:30.238Z,63.84
2022-12-18T03:27:03.925Z,63.36
2022-12-18T03:30:08.277Z,63.27
2022-12-18T03:33:08.279Z,62.63
2022-12-18T03:35:41.276Z,62.02
2022-12-18T03:38:08.975Z,61.94
2022-12-18T03:41:13.760Z,61.00
2022-12-18T03:44:01.909Z,60.82
2022-12-18T03:46:49.881Z,60.42
2022-12-18T03:49:51.677Z,59.95
2022-12-18T03:52:37.162Z,59.29
2022-12-18T03:55:06.490Z,58.86
2022-12-18T03:57:34.418Z,58.44
2022-12-18T04:00:13.417Z,58.09
2022-12-18T04:02:47.210Z,58.03
2022-12-18T04:05:15.400Z,57.88
2022-12-18T04:07:44.127Z,57.52
2022-12-18T04:10:13.392Z,57.40
2022-12-18T04:12:40.567Z,56.90
2022-12-18T04:15:09.354Z,56.91
2022-12-18T04:17:36.549Z,56.29
2022-12-18T04:20:04.407Z,56.41
2022-12-18T04:22:31.610Z,56.17
2022-12-18T04:24:58.780Z,56.22
2022-12-18T04:27:25.970Z,56.13
2022-12-18T04:29:53.177Z,55.95
2022-12-18T04:32:20.331Z,55.87
2022-12-18T04:34:47.490Z,55.14
2022-12-18T04:37:14.817Z,52.79
2022-12-18T04:39:42.009Z,61.14
2022-12-18T04:42:09.108Z,64.87
2022-12-18T04:44:37.096Z,62.33
2022-12-18T04:47:04.462Z,57.79
2022-12-18T04:49:31.544Z,55.86
2022-12-18T04:51:58.691Z,57.45
2022-12-18T04:54:26.488Z,60.81
2022-12-18T04:56:53.714Z,62.70
2022-12-18T04:59:21.815Z,63.01
2022-12-18T05:01:49.126Z,63.15
2022-12-18T05:04:16.804Z,62.46
2022-12-18T05:06:45.246Z,62.53
2022-12-18T05:09:12.364Z,62.15
2022-12-18T05:11:39.621Z,61.25
2022-12-18T05:14:06.775Z,61.38
2022-12-18T05:16:34.009Z,60.69
2022-12-18T05:19:01.180Z,59.99
2022-12-18T05:21:28.286Z,58.83
2022-12-18T05:23:55.384Z,59.09
2022-12-18T05:26:22.507Z,58.45
2022-12-18T05:28:49.701Z,58.22
2022-12-18T05:31:17.125Z,57.94
2022-12-18T05:33:44.503Z,57.52
2022-12-18T05:36:12.715Z,56.74
2022-12-18T05:38:40.848Z,56.50
2022-12-18T05:41:09.650Z,56.36
2022-12-18T05:43:39.322Z,55.81
2022-12-18T05:46:10.029Z,55.79
2022-12-18T05:48:37.161Z,55.54
2022-12-18T05:51:08.305Z,55.08
2022-12-18T05:53:37.893Z,54.96
2022-12-18T05:56:08.757Z,54.56
2022-12-18T05:58:36.481Z,54.55
2022-12-18T06:01:16.831Z,54.48
2022-12-18T06:03:44.958Z,54.48
2022-12-18T06:06:24.721Z,54.33
2022-12-18T06:08:52.879Z,54.04
2022-12-18T06:11:26.437Z,54.08
2022-12-18T06:13:58.535Z,53.97
2022-12-18T06:16:27.841Z,54.30
2022-12-18T06:19:02.489Z,53.90
2022-12-18T06:21:30.594Z,54.22
2022-12-18T06:23:59.272Z,54.46
2022-12-18T06:26:28.521Z,54.39
2022-12-18T06:28:56.509Z,54.07
2022-12-18T06:31:23.886Z,55.14
2022-12-18T06:33:51.296Z,56.04
2022-12-18T06:36:18.861Z,56.65
2022-12-18T06:38:46.085Z,57.79
2022-12-18T06:41:20.242Z,47.74
2022-12-18T06:43:47.481Z,59.37
2022-12-18T06:46:15.013Z,65.29
2022-12-18T06:48:42.552Z,64.44
2022-12-18T06:51:09.883Z,59.79
2022-12-18T06:53:37.226Z,62.34
2022-12-18T06:56:10.159Z,63.25
2022-12-18T06:58:39.478Z,64.86
2022-12-18T07:01:11.158Z,66.79
2022-12-18T07:03:43.799Z,68.13
2022-12-18T07:06:20.640Z,68.57
2022-12-18T07:08:48.989Z,68.63
2022-12-18T07:11:17.203Z,68.44
2022-12-18T07:13:44.767Z,68.71
2022-12-18T07:16:24.697Z,69.15
2022-12-18T07:18:55.600Z,68.82
2022-12-18T07:21:25.049Z,68.86
2022-12-18T07:23:52.635Z,68.53
2022-12-18T07:26:22.427Z,67.45
2022-12-18T07:28:50.604Z,67.57
2022-12-18T07:31:22.304Z,66.53
2022-12-18T07:33:51.201Z,65.16
2022-12-18T07:36:18.816Z,65.35
2022-12-18T07:38:49.838Z,64.76
2022-12-18T07:41:17.732Z,64.26
2022-12-18T07:43:45.180Z,64.19
2022-12-18T07:46:17.739Z,63.19
2022-12-18T07:48:46.218Z,62.74
2022-12-18T07:51:18.603Z,62.25
2022-12-18T07:53:45.865Z,61.98
2022-12-18T07:56:31.123Z,61.62
2022-12-18T07:59:00.127Z,61.85
2022-12-18T08:01:28.310Z,61.84
2022-12-18T08:03:55.618Z,61.33
2022-12-18T08:06:23.908Z,60.78
2022-12-18T08:08:56.797Z,61.16
2022-12-18T08:11:26.421Z,61.20
2022-12-18T08:13:54.326Z,61.60
2022-12-18T08:16:23.049Z,61.24
2022-12-18T08:18:52.275Z,60.69
2022-12-18T08:21:27.950Z,60.84
2022-12-18T08:23:58.176Z,60.10
2022-12-18T08:26:28.317Z,60.37
2022-12-18T08:28:57.178Z,60.33
2022-12-18T08:31:25.074Z,60.94
2022-12-18T08:33:53.908Z,61.38
2022-12-18T08:36:23.941Z,60.03
2022-12-18T08:38:52.054Z,59.99
2022-12-18T08:41:20.106Z,59.80
2022-12-18T08:44:06.342Z,60.25
2022-12-18T08:46:40.801Z,51.15
2022-12-18T08:49:09.523Z,61.56
2022-12-18T08:51:37.151Z,66.99
2022-12-18T08:54:06.335Z,65.64
2022-12-18T08:56:35.062Z,61.15
2022-12-18T08:59:02.277Z,59.53
2022-12-18T09:01:29.662Z,61.92
2022-12-18T09:03:57.015Z,64.75
2022-12-18T09:06:24.932Z,66.80
2022-12-18T09:08:52.221Z,69.17
2022-12-18T09:11:26.400Z,69.84
2022-12-18T09:13:54.949Z,70.65
2022-12-18T09:16:26.127Z,70.12
2022-12-18T09:19:00.655Z,69.94
2022-12-18T09:21:36.768Z,70.65
2022-12-18T09:24:08.562Z,69.82
2022-12-18T09:26:36.127Z,68.62
2022-12-18T09:29:08.167Z,68.13
2022-12-18T09:31:35.771Z,66.74
2022-12-18T09:34:03.066Z,66.09
2022-12-18T09:36:30.287Z,65.38
2022-12-18T09:39:02.633Z,64.45
2022-12-18T09:41:55.689Z,63.54
2022-12-18T09:44:31.557Z,62.37
2022-12-18T09:47:12.122Z,62.07
2022-12-18T09:49:45.416Z,61.61
2022-12-18T09:52:45.435Z,61.07
2022-12-18T09:55:35.088Z,60.85
2022-12-18T09:58:41.235Z,60.59
2022-12-18T10:01:17.524Z,60.03
2022-12-18T10:03:44.731Z,60.04
2022-12-18T10:06:40.603Z,59.82
2022-12-18T10:09:21.545Z,59.72
2022-12-18T10:12:22.386Z,60.29
2022-12-18T10:15:03.921Z,60.14
2022-12-18T10:17:57.925Z,59.81
2022-12-18T10:21:14.608Z,60.27
2022-12-18T10:23:58.177Z,60.12
2022-12-18T10:26:26.265Z,60.63
2022-12-18T10:28:56.938Z,59.77
2022-12-18T10:31:26.642Z,60.39
2022-12-18T10:33:56.158Z,60.04
2022-12-18T10:36:28.137Z,59.83
2022-12-18T10:39:00.201Z,59.99
2022-12-18T10:41:29.253Z,59.61
2022-12-18T10:44:24.085Z,60.02
2022-12-18T10:46:59.331Z,59.61
2022-12-18T10:49:33.886Z,60.22
2022-12-18T10:52:16.313Z,58.27
2022-12-18T10:55:04.296Z,67.02
2022-12-18T10:57:42.540Z,70.24
2022-12-18T11:00:29.638Z,72.11
2022-12-18T11:02:57.974Z,73.61
2022-12-18T11:05:34.972Z,74.50
2022-12-18T11:08:02.552Z,74.98
2022-12-18T11:10:40.146Z,75.63
2022-12-18T11:13:23.074Z,76.23
2022-12-18T11:15:51.299Z,76.47
2022-12-18T11:18:32.913Z,76.76
2022-12-18T11:21:13.923Z,76.65
2022-12-18T11:23:54.941Z,77.03
2022-12-18T11:26:34.779Z,77.03
2022-12-18T11:29:18.911Z,77.33
2022-12-18T11:31:47.358Z,77.67
2022-12-18T11:34:31.549Z,77.73
2022-12-18T11:37:02.108Z,77.84
2022-12-18T11:39:59.210Z,78.04
2022-12-18T11:42:40.831Z,78.14
2022-12-18T11:45:14.042Z,78.42
2022-12-18T11:47:53.591Z,78.59
2022-12-18T11:50:46.016Z,78.54
2022-12-18T11:53:13.834Z,79.06
2022-12-18T11:55:49.724Z,79.05
2022-12-18T11:58:39.448Z,79.14
2022-12-18T12:01:36.497Z,79.35
2022-12-18T12:04:27.762Z,79.30
2022-12-18T12:07:19.297Z,79.37
2022-12-18T12:10:11.419Z,79.31
2022-12-18T12:13:16.812Z,79.57
2022-12-18T12:15:43.828Z,79.64
2022-12-18T12:18:44.745Z,79.73
2022-12-18T12:21:40.380Z,79.79
2022-12-18T12:24:43.075Z,79.83
2022-12-18T12:27:55.648Z,79.95
2022-12-18T12:30:57.800Z,80.21
2022-12-18T12:34:05.123Z,80.43
2022-12-18T12:37:08.525Z,80.37
2022-12-18T12:39:43.880Z,80.74
2022-12-18T12:42:57.391Z,80.84
2022-12-18T12:45:39.694Z,80.88
2022-12-18T12:48:17.692Z,80.87
2022-12-18T12:50:46.138Z,80.90
2022-12-18T12:53:31.653Z,81.00
2022-12-18T12:55:59.680Z,81.32
2022-12-18T12:59:12.001Z,81.23
2022-12-18T13:02:03.701Z,81.51
2022-12-18T13:04:44.815Z,81.70
2022-12-18T13:07:29.011Z,81.41
2022-12-18T13:10:31.710Z,81.90
2022-12-18T13:13:13.493Z,82.16
2022-12-18T13:16:09.162Z,82.04
2022-12-18T13:18:36.848Z,81.91
2022-12-18T13:21:28.385Z,82.11
2022-12-18T13:23:57.356Z,82.03
2022-12-18T13:26:28.802Z,81.97
2022-12-18T13:28:58.335Z,82.22
2022-12-18T13:31:31.930Z,82.15
2022-12-18T13:34:26.152Z,82.17
2022-12-18T13:37:00.468Z,82.38
2022-12-18T13:39:36.965Z,82.30
2022-12-18T13:42:07.406Z,82.22
2022-12-18T13:44:40.977Z,82.29
2022-12-18T13:47:39.037Z,82.42
2022-12-18T13:50:36.554Z,82.54
2022-12-18T13:53:06.024Z,82.42
2022-12-18T13:55:33.696Z,82.44
2022-12-18T13:58:07.676Z,82.44
2022-12-18T14:00:34.981Z,82.86
2022-12-18T14:03:02.704Z,82.57
2022-12-18T14:05:38.683Z,82.69
2022-12-18T14:08:12.521Z,82.59
2022-12-18T14:10:50.167Z,82.54
2022-12-18T14:13:32.567Z,82.40
2022-12-18T14:16:04.400Z,82.41
2022-12-18T14:19:15.905Z,82.69
2022-12-18T14:21:50.787Z,82.62
2022-12-18T14:24:22.152Z,82.94
2022-12-18T14:26:51.503Z,82.88
2022-12-18T14:29:24.780Z,83.08
2022-12-18T14:32:13.372Z,83.21
2022-12-18T14:34:48.523Z,83.41
2022-12-18T14:37:21.373Z,83.49
2022-12-18T14:40:07.125Z,83.44
2022-12-18T14:42:38.514Z,83.71
2022-12-18T14:46:00.536Z,84.04
2022-12-18T14:48:42.041Z,84.44
2022-12-18T14:51:25.323Z,84.51
2022-12-18T14:54:16.553Z,84.68
2022-12-18T14:56:48.314Z,84.99
2022-12-18T14:59:24.206Z,85.00
2022-12-18T15:03:22.398Z,84.78
2022-12-18T15:05:50.446Z,85.13
2022-12-18T15:08:40.639Z,85.08
2022-12-18T15:11:29.577Z,84.91
2022-12-18T15:13:59.041Z,84.95
2022-12-18T15:16:26.532Z,84.86
2022-12-18T15:18:54.605Z,84.96
2022-12-18T15:21:22.737Z,85.21
2022-12-18T15:23:52.593Z,85.20
2022-12-18T15:26:22.871Z,85.01
2022-12-18T15:28:59.576Z,85.17
2022-12-18T15:31:37.095Z,85.06
2022-12-18T15:34:13.895Z,85.30
2022-12-18T15:36:41.834Z,85.02
2022-12-18T15:39:13.891Z,85.06
2022-12-18T15:41:41.050Z,85.21
2022-12-18T15:44:26.494Z,85.26
2022-12-18T15:46:53.645Z,85.16
2022-12-18T15:49:20.897Z,85.20
2022-12-18T15:51:57.660Z,85.02
2022-12-18T15:54:43.265Z,100.00
2022-12-18T15:57:26.335Z,85.02
2022-12-18T15:59:59.315Z,85.13
2022-12-18T16:02:29.518Z,100.00
2022-12-18T16:04:58.012Z,85.13
2022-12-18T16:07:28.166Z,85.12
2022-12-18T16:09:58.942Z,85.43
2022-12-18T16:12:28.845Z,100.00
2022-12-18T16:14:56.704Z,100.00
2022-12-18T16:17:24.557Z,100.00
2022-12-18T16:19:52.483Z,100.00
2022-12-18T16:22:29.005Z,100.00
2022-12-18T16:24:58.454Z,100.00
2022-12-18T16:27:27.056Z,100.00
2022-12-18T16:29:55.077Z,100.00
2022-12-18T16:32:24.639Z,100.00
2022-12-18T16:34:53.052Z,100.00
2022-12-18T16:37:21.009Z,100.00
2022-12-18T16:39:48.873Z,100.00
2022-12-18T16:42:20.521Z,100.00
2022-12-18T16:44:54.413Z,100.00
2022-12-18T18:30:38.422Z,0.00
2022-12-18T23:46:53.140Z,0.00
2022-12-18T23:49:20.800Z,0.00
2022-12-18T23:51:47.836Z,0.00
2022-12-18T23:54:14.901Z,0.00
2022-12-18T23:56:42.218Z,0.00
2022-12-18T23:59:09.591Z,0.00
